createdAt,value
2023-03-16T00:00:57.328Z,1.39
2023-03-16T00:03:25.103Z,1.42
2023-03-16T00:05:54.688Z,1.49
2023-03-16T00:08:22.567Z,1.63
2023-03-16T00:10:50.365Z,1.29
2023-03-16T00:13:19.811Z,1.83
2023-03-16T00:15:53.794Z,1.82
2023-03-16T00:18:22.491Z,2.10
2023-03-16T00:20:55.356Z,2.08
2023-03-16T00:23:27.153Z,1.76
2023-03-16T00:25:55.528Z,1.94
2023-03-16T00:28:23.839Z,1.42
2023-03-16T00:30:58.785Z,1.60
2023-03-16T00:33:26.606Z,1.82
2023-03-16T00:36:02.142Z,1.85
2023-03-16T00:38:31.440Z,1.73
2023-03-16T00:41:00.098Z,1.84
2023-03-16T00:43:28.008Z,1.88
2023-03-16T00:46:06.520Z,1.77
2023-03-16T00:48:35.452Z,1.67
2023-03-16T00:51:04.328Z,1.91
2023-03-16T00:53:33.290Z,1.66
2023-03-16T00:56:02.980Z,1.63
2023-03-16T00:58:35.710Z,1.71
2023-03-16T01:01:05.843Z,1.62
2023-03-16T01:03:34.301Z,1.73
2023-03-16T01:06:06.174Z,1.74
2023-03-16T01:08:34.162Z,1.85
2023-03-16T01:11:04.625Z,1.69
2023-03-16T01:13:33.350Z,1.72
2023-03-16T01:16:02.953Z,1.67
2023-03-16T01:18:34.206Z,1.74
2023-03-16T01:21:03.520Z,1.72
2023-03-16T01:23:34.411Z,1.92
2023-03-16T01:26:02.419Z,1.88
2023-03-16T01:28:32.558Z,1.99
2023-03-16T01:31:03.810Z,1.94
2023-03-16T01:33:35.180Z,2.04
2023-03-16T01:36:07.939Z,1.92
2023-03-16T01:38:44.785Z,1.85
2023-03-16T01:41:13.828Z,1.98
2023-03-16T01:43:43.578Z,2.12
2023-03-16T01:46:19.322Z,2.20
2023-03-16T01:48:59.208Z,2.29
2023-03-16T01:51:32.455Z,2.15
2023-03-16T01:54:04.836Z,2.25
2023-03-16T01:56:37.085Z,2.29
2023-03-16T01:59:10.460Z,2.57
2023-03-16T02:01:38.875Z,2.24
2023-03-16T02:04:23.068Z,2.34
2023-03-16T02:06:56.101Z,2.26
2023-03-16T02:09:26.312Z,2.50
2023-03-16T02:11:56.986Z,2.41
2023-03-16T02:14:26.711Z,2.09
2023-03-16T02:16:55.794Z,2.24
2023-03-16T02:19:37.120Z,2.22
2023-03-16T02:22:09.257Z,2.09
2023-03-16T02:24:37.868Z,2.11
2023-03-16T02:27:10.309Z,1.76
2023-03-16T02:29:55.430Z,1.42
2023-03-16T02:32:25.667Z,2.14
2023-03-16T02:34:53.562Z,2.01
2023-03-16T02:37:22.288Z,2.05
2023-03-16T02:39:50.446Z,1.86
2023-03-16T02:42:22.817Z,2.15
2023-03-16T02:44:56.329Z,2.18
2023-03-16T02:47:36.752Z,1.96
2023-03-16T02:50:06.928Z,1.48
2023-03-16T02:52:35.486Z,1.74
2023-03-16T02:55:03.981Z,1.78
2023-03-16T02:57:32.569Z,1.48
2023-03-16T03:00:13.197Z,1.43
2023-03-16T03:02:42.402Z,1.16
2023-03-16T03:05:10.534Z,1.12
2023-03-16T03:07:39.043Z,1.22
2023-03-16T03:10:09.782Z,1.30
2023-03-16T03:12:38.697Z,1.91
2023-03-16T03:15:11.897Z,2.03
2023-03-16T03:17:51.147Z,1.96
2023-03-16T03:20:20.398Z,2.17
2023-03-16T03:22:52.512Z,2.59
2023-03-16T03:25:21.879Z,2.73
2023-03-16T03:27:54.381Z,2.39
2023-03-16T03:30:26.258Z,2.29
2023-03-16T03:32:54.866Z,2.41
2023-03-16T03:35:24.027Z,2.42
2023-03-16T03:37:52.191Z,2.34
2023-03-16T03:40:21.425Z,1.99
2023-03-16T03:42:55.625Z,1.97
2023-03-16T03:45:26.732Z,2.30
2023-03-16T03:47:56.186Z,1.87
2023-03-16T03:50:24.435Z,1.67
2023-03-16T03:53:00.205Z,2.05
2023-03-16T03:55:30.758Z,2.39
2023-03-16T03:57:58.572Z,2.30
2023-03-16T04:00:27.816Z,2.18
2023-03-16T04:02:55.806Z,2.45
2023-03-16T04:05:30.792Z,2.46
2023-03-16T04:07:58.784Z,2.27
2023-03-16T04:10:28.089Z,2.20
2023-03-16T04:12:57.636Z,2.63
2023-03-16T04:15:27.654Z,2.70
2023-03-16T04:18:06.472Z,2.72
2023-03-16T04:20:34.321Z,2.77
2023-03-16T04:23:02.370Z,2.68
2023-03-16T04:25:31.543Z,2.75
2023-03-16T04:28:00.229Z,2.90
2023-03-16T04:30:32.239Z,2.72
2023-03-16T04:33:18.577Z,2.76
2023-03-16T04:35:47.070Z,2.76
2023-03-16T04:38:16.760Z,2.79
2023-03-16T04:40:56.997Z,2.55
2023-03-16T04:43:28.845Z,2.39
2023-03-16T04:46:06.148Z,2.78
2023-03-16T04:48:35.180Z,2.49
2023-03-16T04:51:05.812Z,2.71
2023-03-16T04:53:37.055Z,2.79
2023-03-16T04:56:18.271Z,2.71
2023-03-16T04:58:50.074Z,2.51
2023-03-16T05:01:20.775Z,2.71
2023-03-16T05:03:50.817Z,2.88
2023-03-16T05:06:18.957Z,2.95
2023-03-16T05:08:46.815Z,3.11
2023-03-16T05:11:14.640Z,2.96
2023-03-16T05:13:52.256Z,3.06
2023-03-16T05:16:21.676Z,3.07
2023-03-16T05:18:49.596Z,3.07
2023-03-16T05:21:17.583Z,2.48
2023-03-16T05:23:58.309Z,2.98
2023-03-16T05:26:26.492Z,3.08
2023-03-16T05:28:54.787Z,2.96
2023-03-16T05:31:27.806Z,3.55
2023-03-16T05:33:59.965Z,3.10
2023-03-16T05:36:27.933Z,2.86
2023-03-16T05:39:01.703Z,2.71
2023-03-16T05:41:37.317Z,2.96
2023-03-16T05:44:24.616Z,3.17
2023-03-16T05:47:20.033Z,2.53
2023-03-16T05:49:53.290Z,3.13
2023-03-16T05:52:26.608Z,3.21
2023-03-16T05:54:56.429Z,3.66
2023-03-16T05:57:24.660Z,3.14
2023-03-16T05:59:53.776Z,3.16
2023-03-16T06:02:24.204Z,3.74
2023-03-16T06:04:52.577Z,3.29
2023-03-16T06:07:20.922Z,3.30
2023-03-16T06:09:49.346Z,3.75
2023-03-16T06:12:17.684Z,3.50
2023-03-16T06:14:45.752Z,3.44
2023-03-16T06:17:14.474Z,3.51
2023-03-16T06:19:44.684Z,3.66
2023-03-16T06:22:13.125Z,3.48
2023-03-16T06:24:41.264Z,4.12
2023-03-16T06:27:09.138Z,4.01
2023-03-16T06:29:49.188Z,4.13
2023-03-16T06:32:17.094Z,4.26
2023-03-16T06:34:46.209Z,3.97
2023-03-16T06:37:13.993Z,4.46
2023-03-16T06:39:41.910Z,3.79
2023-03-16T06:42:10.308Z,3.64
2023-03-16T06:44:39.403Z,3.94
2023-03-16T06:47:10.728Z,4.33
2023-03-16T06:49:39.043Z,4.58
2023-03-16T06:52:16.216Z,4.28
2023-03-16T06:54:44.026Z,4.32
2023-03-16T06:57:12.778Z,4.38
2023-03-16T06:59:41.286Z,4.57
2023-03-16T07:02:11.950Z,4.64
2023-03-16T07:04:39.766Z,4.31
2023-03-16T07:07:08.666Z,4.83
2023-03-16T07:09:40.372Z,5.08
2023-03-16T07:12:10.185Z,5.39
2023-03-16T07:14:38.981Z,5.19
2023-03-16T07:17:08.185Z,5.52
2023-03-16T07:19:36.220Z,4.47
2023-03-16T07:22:04.870Z,5.50
2023-03-16T07:24:37.713Z,5.46
2023-03-16T07:27:05.723Z,5.66
2023-03-16T07:29:34.312Z,5.62
2023-03-16T07:32:04.973Z,5.37
2023-03-16T07:34:37.728Z,5.62
2023-03-16T07:37:06.478Z,5.80
2023-03-16T07:39:35.056Z,5.62
2023-03-16T07:42:15.910Z,5.52
2023-03-16T07:45:02.395Z,5.55
2023-03-16T07:47:31.786Z,5.93
2023-03-16T07:50:04.048Z,5.88
2023-03-16T07:52:35.872Z,5.94
2023-03-16T07:55:05.913Z,6.33
2023-03-16T07:57:35.768Z,6.10
2023-03-16T08:00:05.306Z,6.49
2023-03-16T08:02:41.840Z,6.68
2023-03-16T08:05:12.823Z,6.54
2023-03-16T08:07:44.592Z,6.47
2023-03-16T08:10:16.581Z,6.33
2023-03-16T08:12:52.648Z,6.87
2023-03-16T08:15:21.528Z,7.19
2023-03-16T08:17:50.310Z,7.08
2023-03-16T08:20:23.908Z,7.21
2023-03-16T08:22:51.782Z,7.07
2023-03-16T08:25:24.514Z,6.83
2023-03-16T08:28:05.946Z,6.89
2023-03-16T08:30:34.151Z,7.41
2023-03-16T08:33:23.135Z,7.44
2023-03-16T08:35:52.632Z,7.29
2023-03-16T08:38:20.574Z,7.05
2023-03-16T08:40:52.157Z,6.92
2023-03-16T08:43:23.976Z,7.30
2023-03-16T08:45:53.760Z,7.23
2023-03-16T08:48:24.602Z,7.58
2023-03-16T08:50:53.879Z,7.73
2023-03-16T08:53:22.044Z,7.53
2023-03-16T08:55:49.983Z,7.41
2023-03-16T08:58:17.801Z,7.59
2023-03-16T09:00:48.258Z,7.95
2023-03-16T09:03:17.355Z,8.09
2023-03-16T09:05:45.055Z,7.97
2023-03-16T09:08:13.016Z,8.13
2023-03-16T09:10:40.785Z,7.95
2023-03-16T09:13:08.559Z,8.26
2023-03-16T09:15:36.467Z,7.59
2023-03-16T09:18:06.316Z,7.54
2023-03-16T09:20:34.217Z,7.71
2023-03-16T09:23:02.072Z,7.28
2023-03-16T09:25:30.860Z,6.95
2023-03-16T09:27:59.253Z,7.05
2023-03-16T09:30:28.264Z,7.08
2023-03-16T09:32:56.160Z,6.99
2023-03-16T09:35:25.324Z,6.89
2023-03-16T09:38:05.695Z,6.66
2023-03-16T09:40:35.871Z,7.73
2023-03-16T09:43:15.459Z,7.48
2023-03-16T09:45:49.923Z,7.27
2023-03-16T09:48:20.872Z,7.39
2023-03-16T09:50:50.928Z,7.49
2023-03-16T09:53:26.329Z,7.21
2023-03-16T09:56:31.320Z,7.56
2023-03-16T10:00:12.636Z,7.80
2023-03-16T10:03:36.647Z,8.69
2023-03-16T10:06:10.490Z,8.66
2023-03-16T10:08:42.058Z,9.25
2023-03-16T10:11:25.015Z,9.18
2023-03-16T10:13:58.579Z,9.63
2023-03-16T10:16:31.769Z,8.62
2023-03-16T10:19:03.498Z,8.25
2023-03-16T10:21:44.942Z,9.08
2023-03-16T10:24:25.255Z,9.07
2023-03-16T10:27:00.001Z,9.50
2023-03-16T10:29:31.483Z,9.39
2023-03-16T10:32:02.670Z,9.58
2023-03-16T10:34:32.159Z,9.78
2023-03-16T10:37:02.961Z,9.87
2023-03-16T10:39:42.847Z,9.67
2023-03-16T10:42:16.816Z,9.86
2023-03-16T10:44:46.053Z,10.27
2023-03-16T10:47:20.236Z,9.53
2023-03-16T10:49:51.493Z,9.80
2023-03-16T10:52:25.938Z,10.10
2023-03-16T10:54:57.481Z,10.49
2023-03-16T10:57:27.672Z,10.45
2023-03-16T10:59:57.602Z,9.54
2023-03-16T11:02:31.995Z,10.13
2023-03-16T11:05:00.865Z,9.52
2023-03-16T11:07:30.040Z,10.08
2023-03-16T11:09:58.699Z,8.95
2023-03-16T11:12:28.852Z,9.52
2023-03-16T11:15:04.708Z,9.49
2023-03-16T11:17:38.410Z,9.62
2023-03-16T11:20:17.489Z,9.64
2023-03-16T11:22:48.880Z,10.29
2023-03-16T11:25:26.783Z,10.28
2023-03-16T11:28:05.056Z,10.19
2023-03-16T11:30:39.707Z,10.44
2023-03-16T11:33:10.605Z,9.70
2023-03-16T11:35:58.343Z,9.83
2023-03-16T11:38:36.140Z,9.73
2023-03-16T11:41:09.176Z,9.22
2023-03-16T11:43:49.284Z,9.58
2023-03-16T11:46:22.664Z,9.87
2023-03-16T11:49:02.783Z,9.50
2023-03-16T11:51:43.547Z,10.47
2023-03-16T11:54:40.280Z,10.35
2023-03-16T11:57:24.720Z,10.91
2023-03-16T12:00:07.622Z,10.93
2023-03-16T12:02:51.158Z,10.89
2023-03-16T12:05:33.578Z,11.18
2023-03-16T12:08:11.082Z,10.57
2023-03-16T12:10:44.324Z,11.55
2023-03-16T12:13:30.327Z,11.44
2023-03-16T12:16:01.671Z,11.64
2023-03-16T12:18:39.738Z,11.74
2023-03-16T12:21:14.316Z,12.34
2023-03-16T12:23:50.355Z,12.79
2023-03-16T12:26:22.289Z,13.03
2023-03-16T12:28:51.850Z,14.14
2023-03-16T12:31:23.905Z,17.23
2023-03-16T12:34:10.107Z,19.78
2023-03-16T12:37:00.966Z,18.25
2023-03-16T12:39:52.865Z,16.38
2023-03-16T12:42:35.802Z,16.66
2023-03-16T12:45:07.138Z,16.98
2023-03-16T12:47:45.044Z,16.40
2023-03-16T12:50:15.478Z,16.28
2023-03-16T12:52:48.101Z,14.66
2023-03-16T12:55:17.794Z,13.91
2023-03-16T12:57:51.477Z,13.55
2023-03-16T13:00:21.549Z,14.13
2023-03-16T13:02:55.614Z,12.69
2023-03-16T13:05:32.292Z,12.95
2023-03-16T13:08:09.055Z,12.98
2023-03-16T13:10:37.519Z,12.72
2023-03-16T13:13:12.951Z,12.66
2023-03-16T13:15:41.427Z,12.68
2023-03-16T13:18:24.168Z,12.67
2023-03-16T13:20:56.431Z,12.33
2023-03-16T13:23:27.485Z,12.51
2023-03-16T13:26:05.660Z,12.70
2023-03-16T13:28:38.692Z,12.78
2023-03-16T13:31:20.329Z,12.61
2023-03-16T13:33:49.277Z,12.57
2023-03-16T13:36:18.268Z,13.71
2023-03-16T13:38:57.319Z,14.48
2023-03-16T13:41:25.218Z,13.67
2023-03-16T13:43:54.447Z,13.47
2023-03-16T13:46:28.156Z,15.23
2023-03-16T13:49:00.063Z,14.71
2023-03-16T13:51:30.913Z,16.34
2023-03-16T13:53:59.276Z,18.86
2023-03-16T13:56:29.431Z,19.45
2023-03-16T13:58:59.798Z,20.00
2023-03-16T14:01:29.364Z,20.55
2023-03-16T14:03:59.719Z,19.42
2023-03-16T14:06:31.374Z,22.85
2023-03-16T14:09:03.658Z,23.03
2023-03-16T14:11:31.888Z,23.74
2023-03-16T14:14:02.063Z,19.99
2023-03-16T14:16:32.049Z,20.32
2023-03-16T14:19:04.496Z,18.17
2023-03-16T14:21:34.959Z,20.29
2023-03-16T14:24:04.480Z,20.98
2023-03-16T14:26:41.682Z,20.48
2023-03-16T14:29:19.440Z,19.21
2023-03-16T14:31:47.322Z,20.55
2023-03-16T14:34:28.820Z,20.35
2023-03-16T14:37:07.159Z,20.53
2023-03-16T14:39:35.492Z,20.55
2023-03-16T14:42:06.794Z,20.52
2023-03-16T14:44:38.350Z,20.79
2023-03-16T14:47:07.373Z,20.41
2023-03-16T14:49:38.444Z,21.39
2023-03-16T14:52:09.322Z,20.99
2023-03-16T14:54:37.378Z,21.03
2023-03-16T14:57:06.637Z,19.70
2023-03-16T14:59:36.443Z,21.25
2023-03-16T15:02:07.825Z,18.74
2023-03-16T15:04:38.248Z,18.64
2023-03-16T15:07:22.364Z,16.97
2023-03-16T15:09:52.356Z,16.08
2023-03-16T15:12:21.567Z,16.19
2023-03-16T15:15:08.282Z,16.55
2023-03-16T15:17:36.456Z,15.86
2023-03-16T15:20:05.507Z,16.65
2023-03-16T15:22:36.809Z,16.08
2023-03-16T15:25:20.600Z,15.69
2023-03-16T15:27:49.211Z,15.17
2023-03-16T15:30:20.696Z,14.76
2023-03-16T15:32:48.683Z,15.55
2023-03-16T15:35:17.057Z,14.80
2023-03-16T15:37:45.843Z,14.69
2023-03-16T15:40:19.408Z,14.31
2023-03-16T15:42:47.258Z,15.14
2023-03-16T15:45:18.861Z,14.67
2023-03-16T15:47:46.856Z,15.28
2023-03-16T15:50:16.507Z,15.53
2023-03-16T15:52:47.556Z,15.43
2023-03-16T15:55:21.939Z,15.73
2023-03-16T15:57:51.585Z,15.34
2023-03-16T16:00:29.510Z,15.71
2023-03-16T16:02:59.242Z,13.99
2023-03-16T16:05:27.765Z,13.63
2023-03-16T16:07:56.477Z,13.51
2023-03-16T16:10:24.945Z,13.34
2023-03-16T16:12:55.074Z,12.58
2023-03-16T16:15:27.340Z,12.83
2023-03-16T16:18:19.367Z,12.85
2023-03-16T16:20:44.592Z,12.61
2023-03-16T16:23:12.716Z,12.35
2023-03-16T16:25:42.914Z,11.97
2023-03-16T16:28:16.449Z,12.24
2023-03-16T16:30:46.082Z,12.43
2023-03-16T16:33:25.673Z,12.24
2023-03-16T16:35:54.325Z,11.87
2023-03-16T16:38:23.026Z,11.44
2023-03-16T16:40:51.604Z,11.80
2023-03-16T16:43:32.695Z,11.39
2023-03-16T16:46:04.252Z,11.87
2023-03-16T16:48:34.412Z,11.61
2023-03-16T16:51:02.379Z,11.49
2023-03-16T16:53:30.671Z,11.60
2023-03-16T16:55:58.555Z,11.75
2023-03-16T16:58:27.145Z,11.31
2023-03-16T17:00:58.124Z,11.18
2023-03-16T17:03:29.849Z,10.68
2023-03-16T17:05:59.557Z,10.65
2023-03-16T17:08:27.564Z,10.59
2023-03-16T17:10:55.668Z,10.43
2023-03-16T17:13:28.473Z,10.45
2023-03-16T17:15:56.612Z,10.35
2023-03-16T17:18:24.992Z,10.03
2023-03-16T17:20:55.125Z,10.01
2023-03-16T17:23:29.276Z,9.56
2023-03-16T17:25:59.670Z,9.97
2023-03-16T17:28:30.784Z,10.02
2023-03-16T17:30:58.750Z,9.56
2023-03-16T17:33:28.522Z,9.95
2023-03-16T17:35:57.746Z,9.55
2023-03-16T17:38:26.450Z,9.66
2023-03-16T17:40:55.084Z,9.80
2023-03-16T17:43:24.179Z,9.48
2023-03-16T17:45:53.350Z,9.46
2023-03-16T17:48:24.037Z,9.35
2023-03-16T17:50:52.396Z,9.27
2023-03-16T17:53:22.676Z,9.34
2023-03-16T17:55:50.595Z,9.18
2023-03-16T17:58:26.311Z,9.42
2023-03-16T18:00:55.079Z,8.96
2023-03-16T18:03:29.323Z,9.43
2023-03-16T18:05:58.530Z,8.65
2023-03-16T18:08:29.263Z,9.02
2023-03-16T18:11:00.558Z,8.93
2023-03-16T18:13:32.534Z,8.41
2023-03-16T18:16:00.897Z,8.51
2023-03-16T18:18:31.619Z,8.41
2023-03-16T18:21:00.596Z,8.55
2023-03-16T18:23:31.698Z,8.81
2023-03-16T18:26:02.121Z,8.86
2023-03-16T18:28:30.796Z,8.67
2023-03-16T18:30:59.891Z,8.89
2023-03-16T18:33:31.269Z,8.71
2023-03-16T18:36:01.271Z,8.86
2023-03-16T18:38:33.164Z,8.70
2023-03-16T18:41:03.144Z,8.15
2023-03-16T18:43:31.277Z,8.05
2023-03-16T18:45:59.115Z,8.61
2023-03-16T18:48:29.958Z,8.51
2023-03-16T18:50:58.007Z,8.54
2023-03-16T18:53:26.048Z,8.39
2023-03-16T18:55:57.410Z,8.72
2023-03-16T18:58:25.841Z,8.14
2023-03-16T19:00:56.477Z,8.81
2023-03-16T19:03:27.812Z,8.71
2023-03-16T19:05:57.937Z,8.45
2023-03-16T19:08:27.786Z,8.58
2023-03-16T19:10:59.093Z,8.31
2023-03-16T19:13:27.769Z,8.59
2023-03-16T19:15:57.720Z,8.52
2023-03-16T19:18:26.111Z,8.38
2023-03-16T19:20:56.042Z,8.65
2023-03-16T19:23:28.371Z,8.33
2023-03-16T19:25:58.006Z,8.51
2023-03-16T19:28:33.624Z,8.43
2023-03-16T19:31:02.874Z,8.32
2023-03-16T19:33:31.095Z,8.53
2023-03-16T19:35:59.748Z,8.18
2023-03-16T19:38:27.768Z,7.91
2023-03-16T19:40:59.324Z,8.36
2023-03-16T19:43:28.745Z,8.98
2023-03-16T19:45:57.305Z,7.88
2023-03-16T19:48:32.187Z,8.04
2023-03-16T19:51:00.338Z,8.46
2023-03-16T19:53:28.381Z,8.41
2023-03-16T19:55:57.552Z,8.63
2023-03-16T19:58:32.297Z,8.69
2023-03-16T20:01:01.029Z,8.72
2023-03-16T20:03:29.287Z,8.39
2023-03-16T20:05:57.298Z,8.45
2023-03-16T20:08:26.954Z,8.45
2023-03-16T20:11:06.472Z,8.23
2023-03-16T20:13:34.981Z,7.92
2023-03-16T20:16:03.307Z,8.46
2023-03-16T20:18:31.428Z,8.21
2023-03-16T20:20:59.303Z,8.69
2023-03-16T20:23:29.215Z,8.46
2023-03-16T20:26:02.175Z,8.13
2023-03-16T20:28:35.562Z,8.58
2023-03-16T20:31:04.205Z,8.15
2023-03-16T20:33:33.285Z,8.83
2023-03-16T20:36:01.270Z,8.07
2023-03-16T20:38:30.286Z,8.16
2023-03-16T20:40:58.277Z,8.57
2023-03-16T20:43:27.815Z,8.38
2023-03-16T20:45:59.359Z,8.19
2023-03-16T20:48:27.891Z,8.04
2023-03-16T20:50:58.090Z,8.02
2023-03-16T20:53:27.103Z,8.06
2023-03-16T20:55:56.377Z,8.13
2023-03-16T20:58:26.390Z,8.02
2023-03-16T21:00:57.563Z,8.07
2023-03-16T21:03:28.536Z,8.20
2023-03-16T21:05:59.970Z,8.31
2023-03-16T21:08:28.371Z,8.27
2023-03-16T21:10:59.734Z,8.26
2023-03-16T21:13:31.365Z,8.43
2023-03-16T21:16:01.402Z,8.35
2023-03-16T21:18:31.348Z,8.41
2023-03-16T21:20:59.319Z,8.29
2023-03-16T21:23:27.184Z,8.88
2023-03-16T21:25:57.638Z,8.71
2023-03-16T21:28:27.725Z,8.55
2023-03-16T21:30:58.708Z,8.79
2023-03-16T21:33:32.905Z,8.85
2023-03-16T21:36:02.042Z,8.40
2023-03-16T21:38:31.479Z,8.40
2023-03-16T21:40:59.574Z,8.44
2023-03-16T21:43:28.021Z,8.83
2023-03-16T21:45:56.952Z,8.61
2023-03-16T21:48:26.647Z,9.00
2023-03-16T21:50:55.810Z,8.86
2023-03-16T21:53:25.041Z,9.05
2023-03-16T21:55:53.364Z,9.03
2023-03-16T21:58:22.159Z,9.20
2023-03-16T22:00:51.705Z,8.98
2023-03-16T22:03:25.865Z,9.31
2023-03-16T22:05:56.979Z,9.00
2023-03-16T22:08:27.013Z,8.93
2023-03-16T22:10:55.258Z,8.82
2023-03-16T22:13:23.939Z,8.64
2023-03-16T22:15:53.374Z,9.20
2023-03-16T22:18:29.839Z,8.74
2023-03-16T22:21:00.589Z,8.66
2023-03-16T22:23:31.757Z,9.04
2023-03-16T22:25:59.730Z,9.00
2023-03-16T22:28:28.037Z,8.67
2023-03-16T22:30:58.547Z,8.75
2023-03-16T22:33:29.863Z,8.92
2023-03-16T22:36:05.841Z,8.93
2023-03-16T22:38:33.866Z,8.86
2023-03-16T22:41:01.965Z,9.18
2023-03-16T22:43:33.096Z,9.43
2023-03-16T22:46:01.105Z,9.19
2023-03-16T22:48:31.133Z,9.19
2023-03-16T22:51:04.812Z,8.97
2023-03-16T22:53:38.771Z,8.93
2023-03-16T22:56:07.672Z,9.10
2023-03-16T22:58:38.073Z,9.02
2023-03-16T23:01:15.913Z,8.90
2023-03-16T23:03:44.142Z,9.03
2023-03-16T23:06:17.479Z,8.97
2023-03-16T23:08:45.948Z,9.02
2023-03-16T23:11:17.187Z,8.82
2023-03-16T23:13:45.047Z,8.95
2023-03-16T23:16:20.952Z,9.10
2023-03-16T23:18:49.871Z,9.11
2023-03-16T23:21:22.015Z,9.27
2023-03-16T23:24:02.662Z,9.05
2023-03-16T23:26:31.887Z,9.04
2023-03-16T23:28:59.878Z,9.14
2023-03-16T23:31:28.059Z,9.27
2023-03-16T23:33:56.080Z,9.13
2023-03-16T23:36:27.161Z,9.20
2023-03-16T23:38:55.164Z,9.27
2023-03-16T23:41:24.737Z,9.31
2023-03-16T23:43:53.523Z,9.32
2023-03-16T23:46:23.669Z,9.26
2023-03-16T23:48:53.331Z,9.23
2023-03-16T23:51:25.573Z,9.47
2023-03-16T23:53:54.815Z,9.41
2023-03-16T23:56:23.134Z,9.35
2023-03-16T23:58:50.992Z,9.54
